Time;durP1;ratioP1;P1;durP2;ratioP2;P2;SDS_P1;SDS_P2;PMS_P1;PMS_P2;Temp;Humidity;BMP_temperature;BMP_pressure;BME280_temperature;BME280_humidity;BME280_pressure;Samples;Min_cycle;Max_cycle;Signal;HPM_P1;HPM_P2
2023/08/21 00:00:13;;;;;;;3.25;1.80;;;20.30;99.90;;;;;;2496297;23;20467;-75
2023/08/21 00:01:13;;;;;;;6.60;1.67;;;20.20;99.90;;;;;;2496023;23;20057;-75
2023/08/21 00:02:14;;;;;;;9.45;1.90;;;20.20;99.90;;;;;;2483560;23;20012;-75
2023/08/21 00:03:14;;;;;;;2.17;1.42;;;20.20;99.90;;;;;;2483171;23;20047;-75
2023/08/21 00:04:15;;;;;;;3.47;1.60;;;20.20;99.90;;;;;;2496680;23;20384;-75
2023/08/21 00:05:16;;;;;;;4.93;2.08;;;20.20;99.90;;;;;;2496232;23;20102;-75
2023/08/21 00:06:16;;;;;;;5.50;1.83;;;20.20;99.90;;;;;;2483635;23;20008;-75
2023/08/21 00:07:17;;;;;;;4.35;1.70;;;20.20;99.90;;;;;;2484405;23;20060;-75
2023/08/21 00:08:17;;;;;;;3.55;2.05;;;20.20;99.90;;;;;;2483487;23;20004;-75
2023/08/21 00:09:18;;;;;;;5.18;2.05;;;20.20;99.90;;;;;;2496368;23;20109;-75
2023/08/21 00:10:18;;;;;;;3.30;1.83;;;20.20;99.90;;;;;;2496858;23;20647;-75
2023/08/21 00:11:19;;;;;;;5.82;1.75;;;20.20;99.90;;;;;;2483480;23;20004;-75
2023/08/21 00:12:19;;;;;;;2.75;1.65;;;20.10;99.90;;;;;;2483653;23;20004;-75
2023/08/21 00:13:20;;;;;;;4.50;1.63;;;20.20;99.90;;;;;;2495090;23;20083;-75
2023/08/21 00:14:20;;;;;;;4.18;1.90;;;20.20;99.90;;;;;;2496409;23;20057;-75
2023/08/21 00:15:21;;;;;;;4.38;2.08;;;20.10;99.90;;;;;;2496368;23;20006;-75
2023/08/21 00:16:22;;;;;;;6.38;1.92;;;20.10;99.90;;;;;;2496636;23;20322;-75
2023/08/21 00:17:22;;;;;;;6.53;1.92;;;20.10;99.90;;;;;;2495471;23;20063;-75
2023/08/21 00:18:23;;;;;;;3.65;1.98;;;20.10;99.90;;;;;;2496497;23;20043;-75
2023/08/21 00:19:24;;;;;;;3.38;1.88;;;20.10;99.90;;;;;;2496610;23;20011;-75
2023/08/21 00:20:24;;;;;;;4.22;1.80;;;20.10;99.90;;;;;;2496272;23;20031;-75
2023/08/21 00:21:25;;;;;;;6.05;2.20;;;20.10;99.90;;;;;;2496156;23;20011;-75
2023/08/21 00:22:25;;;;;;;7.35;2.22;;;20.20;99.90;;;;;;2496136;23;20067;-75
2023/08/21 00:23:26;;;;;;;5.32;1.90;;;20.10;99.90;;;;;;2496158;23;20384;-75
2023/08/21 00:24:27;;;;;;;4.55;2.00;;;20.10;99.90;;;;;;2496124;23;20014;-75
2023/08/21 00:25:27;;;;;;;3.33;1.45;;;20.10;99.90;;;;;;2484273;23;20039;-75
2023/08/21 00:26:28;;;;;;;4.38;1.88;;;20.10;99.90;;;;;;2483028;23;20032;-75
2023/08/21 00:27:29;;;;;;;3.28;1.77;;;20.10;99.90;;;;;;2483194;23;20007;-75
2023/08/21 00:28:32;;;;;;;3.75;1.50;;;20.10;99.90;;;;;;2496217;23;20441;-75
2023/08/21 00:29:33;;;;;;;4.38;2.00;;;20.10;99.90;;;;;;2496856;23;20033;-75
2023/08/21 00:30:33;;;;;;;3.75;1.60;;;20.10;99.90;;;;;;2495342;23;20015;-75
2023/08/21 00:31:34;;;;;;;3.10;1.75;;;20.10;99.90;;;;;;2496369;23;20059;-75
2023/08/21 00:32:35;;;;;;;4.93;1.60;;;20.10;99.90;;;;;;2481812;23;20006;-75
2023/08/21 00:33:37;;;;;;;5.20;1.88;;;20.10;99.90;;;;;;2483853;23;20539;-75
2023/08/21 00:34:37;;;;;;;5.47;2.30;;;20.10;99.90;;;;;;2496628;23;20003;-75
2023/08/21 00:35:38;;;;;;;4.28;1.70;;;20.10;99.90;;;;;;2496183;23;20003;-75
2023/08/21 00:36:38;;;;;;;3.15;1.98;;;20.00;99.90;;;;;;2495812;23;20440;-75
2023/08/21 00:37:39;;;;;;;11.48;1.70;;;20.10;99.90;;;;;;2496039;23;20017;-75
2023/08/21 00:38:40;;;;;;;4.75;1.80;;;20.00;99.90;;;;;;2484102;23;20015;-75
2023/08/21 00:39:40;;;;;;;4.43;2.22;;;20.00;99.90;;;;;;2484571;23;20345;-75
2023/08/21 00:40:41;;;;;;;3.78;1.65;;;20.00;99.90;;;;;;2483193;23;20753;-75
2023/08/21 00:41:42;;;;;;;3.33;1.30;;;20.00;99.90;;;;;;2483661;23;20027;-75
2023/08/21 00:42:42;;;;;;;6.32;2.00;;;20.00;99.90;;;;;;2483633;23;20090;-75
2023/08/21 00:43:43;;;;;;;5.78;2.13;;;20.00;99.90;;;;;;2496045;23;20049;-75
2023/08/21 00:44:44;;;;;;;3.90;1.85;;;20.00;99.90;;;;;;2495928;23;20042;-75
2023/08/21 00:45:46;;;;;;;3.15;1.98;;;20.00;99.90;;;;;;2496735;23;20451;-75
2023/08/21 00:46:47;;;;;;;12.73;2.40;;;20.00;99.90;;;;;;2483304;23;20008;-74
2023/08/21 00:47:47;;;;;;;3.53;1.92;;;20.00;99.90;;;;;;2484451;23;20101;-75
2023/08/21 00:48:48;;;;;;;3.92;1.70;;;20.00;99.90;;;;;;2493947;23;20003;-75
2023/08/21 00:49:49;;;;;;;4.55;1.50;;;20.00;99.90;;;;;;2496000;23;20502;-75
2023/08/21 00:50:50;;;;;;;3.30;1.73;;;19.90;99.90;;;;;;2495606;23;20031;-75
2023/08/21 00:51:51;;;;;;;2.70;1.70;;;19.90;99.90;;;;;;2497099;23;20087;-75
2023/08/21 00:52:52;;;;;;;7.63;1.83;;;19.90;99.90;;;;;;2495770;23;20031;-75
2023/08/21 00:53:52;;;;;;;9.15;2.00;;;19.90;99.90;;;;;;2495213;23;20033;-75
2023/08/21 00:54:55;;;;;;;6.05;1.90;;;19.90;99.90;;;;;;2496779;23;20072;-75
2023/08/21 00:55:56;;;;;;;3.17;1.67;;;19.90;99.90;;;;;;2496212;23;20006;-75
2023/08/21 00:56:56;;;;;;;2.63;1.67;;;19.90;99.90;;;;;;2496499;23;20030;-75
2023/08/21 00:57:57;;;;;;;3.85;1.70;;;19.90;99.90;;;;;;2496912;23;20010;-75
2023/08/21 00:58:58;;;;;;;4.60;1.95;;;19.90;99.90;;;;;;2496541;23;20041;-75
2023/08/21 01:00:01;;;;;;;5.85;1.73;;;19.90;99.90;;;;;;2496031;23;20014;-75
2023/08/21 01:01:03;;;;;;;4.47;1.90;;;19.80;99.90;;;;;;2495333;23;20007;-75
2023/08/21 01:02:04;;;;;;;4.28;2.40;;;19.80;99.90;;;;;;2494950;23;20067;-75
2023/08/21 01:03:05;;;;;;;5.75;1.70;;;19.80;99.90;;;;;;2484292;23;20008;-75
2023/08/21 01:04:05;;;;;;;4.93;2.00;;;19.80;99.90;;;;;;2483687;23;20007;-75
2023/08/21 01:05:08;;;;;;;4.40;1.85;;;19.80;99.90;;;;;;2495752;23;20013;-75
2023/08/21 01:06:09;;;;;;;3.30;1.60;;;19.80;99.90;;;;;;2496705;23;20003;-74
2023/08/21 01:07:10;;;;;;;3.50;2.08;;;19.80;99.90;;;;;;2495681;23;19999;-75
2023/08/21 01:08:17;;;;;;;6.97;1.98;;;19.80;99.90;;;;;;2496017;23;20014;-75
2023/08/21 01:09:29;;;;;;;3.38;1.75;;;19.80;99.90;;;;;;2496105;23;19999;-75
2023/08/21 01:11:07;;;;;;;2.92;1.90;;;19.80;99.90;;;;;;2496542;23;20003;-75
2023/08/21 01:12:34;;;;;;;3.13;1.60;;;19.70;99.90;;;;;;2482042;23;20102;-75
2023/08/21 01:13:38;;;;;;;3.70;1.30;;;19.70;99.90;;;;;;2491379;23;19999;-75
2023/08/21 01:15:03;;;;;;;3.03;1.40;;;19.70;99.90;;;;;;2495832;23;20010;-75
2023/08/21 01:16:05;;;;;;;4.40;1.60;;;19.70;99.90;;;;;;2496403;23;20003;-75
2023/08/21 01:17:08;;;;;;;4.43;1.38;;;19.70;99.90;;;;;;2496171;23;20003;-75
2023/08/21 01:18:09;;;;;;;3.58;1.60;;;19.70;99.90;;;;;;2496174;23;20070;-75
2023/08/21 01:19:24;;;;;;;3.75;1.80;;;19.60;99.90;;;;;;2496361;23;19999;-75
2023/08/21 01:20:25;;;;;;;2.92;1.60;;;19.60;99.90;;;;;;2496394;23;20082;-75
2023/08/21 01:21:26;;;;;;;3.83;1.73;;;19.60;99.90;;;;;;2495982;23;20433;-75
2023/08/21 01:22:34;;;;;;;5.32;1.65;;;19.60;99.90;;;;;;2496198;23;20008;-75
2023/08/21 01:23:38;;;;;;;2.40;1.50;;;19.60;99.90;;;;;;2494755;23;20031;-75
2023/08/21 01:24:38;;;;;;;3.53;1.83;;;19.60;99.90;;;;;;2495610;23;20003;-75
2023/08/21 01:25:39;;;;;;;3.25;1.92;;;19.60;99.90;;;;;;2496568;23;19999;-75
2023/08/21 01:26:39;;;;;;;3.95;1.40;;;19.60;99.90;;;;;;2495594;23;20090;-75
2023/08/21 01:27:43;;;;;;;6.88;2.25;;;19.60;99.90;;;;;;2483464;23;20082;-75
2023/08/21 01:28:44;;;;;;;3.25;1.58;;;19.60;99.90;;;;;;2484415;23;20038;-75
2023/08/21 01:29:45;;;;;;;3.20;1.67;;;19.60;99.90;;;;;;2495628;23;20027;-75
2023/08/21 01:30:46;;;;;;;3.20;1.60;;;19.60;99.90;;;;;;2496532;23;20595;-75
2023/08/21 01:31:56;;;;;;;5.90;1.50;;;19.60;99.90;;;;;;2493744;23;20091;-75
2023/08/21 01:33:06;;;;;;;3.83;2.00;;;19.60;99.90;;;;;;2483526;23;20888;-75
2023/08/21 01:34:11;;;;;;;3.63;1.75;;;19.60;99.90;;;;;;2485405;23;20007;-75
2023/08/21 01:35:12;;;;;;;2.38;1.70;;;19.60;99.90;;;;;;2495097;23;20071;-75
2023/08/21 01:36:14;;;;;;;5.13;1.60;;;19.60;99.90;;;;;;2496476;23;20030;-75
2023/08/21 01:37:15;;;;;;;3.50;1.38;;;19.60;99.90;;;;;;2495426;23;20014;-75
2023/08/21 01:38:16;;;;;;;4.97;1.73;;;19.60;99.90;;;;;;2495848;23;20002;-75
2023/08/21 01:39:17;;;;;;;4.07;1.60;;;19.60;99.90;;;;;;2496104;23;20093;-75
2023/08/21 01:40:22;;;;;;;3.35;1.58;;;19.60;99.90;;;;;;2496068;23;20329;-75
2023/08/21 01:41:24;;;;;;;3.33;1.52;;;19.60;99.90;;;;;;2496050;23;20004;-75
2023/08/21 01:42:24;;;;;;;2.38;1.80;;;19.60;99.90;;;;;;2494861;23;20007;-75
2023/08/21 01:43:25;;;;;;;3.65;1.70;;;19.60;99.90;;;;;;2495270;23;20078;-75
2023/08/21 01:44:26;;;;;;;4.15;1.70;;;19.60;99.90;;;;;;2496334;23;20011;-75
2023/08/21 01:45:27;;;;;;;5.78;1.98;;;19.60;99.90;;;;;;2495201;23;20030;-75
2023/08/21 01:46:27;;;;;;;3.55;1.60;;;19.60;99.90;;;;;;2493356;23;20015;-75
2023/08/21 01:47:28;;;;;;;6.05;1.80;;;19.60;99.90;;;;;;2483895;23;20007;-75
2023/08/21 01:48:28;;;;;;;4.25;1.52;;;19.50;99.90;;;;;;2496373;23;20011;-75
2023/08/21 01:49:29;;;;;;;2.83;1.50;;;19.60;99.90;;;;;;2496365;23;20003;-75
2023/08/21 01:50:30;;;;;;;4.47;1.42;;;19.60;99.90;;;;;;2495981;23;20421;-75
2023/08/21 01:51:31;;;;;;;4.10;1.77;;;19.50;99.90;;;;;;2496582;23;20062;-75
2023/08/21 01:52:32;;;;;;;2.67;1.35;;;19.50;99.90;;;;;;2495449;23;20078;-75
2023/08/21 01:53:32;;;;;;;5.22;1.63;;;19.50;99.90;;;;;;2495244;23;19999;-75
2023/08/21 01:54:33;;;;;;;5.22;1.60;;;19.60;99.90;;;;;;2496186;23;20007;-75
2023/08/21 01:55:33;;;;;;;2.45;1.30;;;19.50;99.90;;;;;;2496302;23;20015;-75
2023/08/21 01:56:34;;;;;;;4.28;1.60;;;19.50;99.90;;;;;;2484023;23;20012;-75
2023/08/21 01:57:35;;;;;;;3.28;1.52;;;19.50;99.90;;;;;;2484133;23;20008;-75
2023/08/21 01:58:36;;;;;;;2.88;1.60;;;19.50;99.90;;;;;;2483447;23;20011;-75
2023/08/21 01:59:36;;;;;;;4.88;1.83;;;19.50;99.90;;;;;;2484117;23;20676;-75
2023/08/21 02:00:37;;;;;;;3.63;1.42;;;19.50;99.90;;;;;;2482919;23;20015;-75
2023/08/21 02:01:37;;;;;;;12.50;1.75;;;19.50;99.90;;;;;;2496606;23;20409;-75
2023/08/21 02:02:38;;;;;;;5.40;1.45;;;19.50;99.90;;;;;;2495386;23;20007;-75
2023/08/21 02:03:40;;;;;;;5.13;1.95;;;19.50;99.90;;;;;;2495857;23;20479;-75
2023/08/21 02:04:41;;;;;;;3.47;1.48;;;19.50;99.90;;;;;;2496234;23;20007;-75
2023/08/21 02:05:41;;;;;;;5.22;1.73;;;19.50;99.90;;;;;;2495699;23;20420;-75
2023/08/21 02:06:43;;;;;;;5.38;1.88;;;19.50;99.90;;;;;;2495962;23;20763;-75
2023/08/21 02:07:44;;;;;;;2.90;1.80;;;19.50;99.90;;;;;;2496627;23;20008;-75
2023/08/21 02:08:45;;;;;;;4.28;1.50;;;19.50;99.90;;;;;;2495956;23;20023;-75
2023/08/21 02:09:45;;;;;;;3.30;1.50;;;19.50;99.90;;;;;;2496270;23;20038;-75
2023/08/21 02:10:50;;;;;;;3.65;1.55;;;19.50;99.90;;;;;;2496405;23;20094;-75
2023/08/21 02:11:50;;;;;;;4.60;1.50;;;19.50;99.90;;;;;;2493530;23;20495;-75
2023/08/21 02:12:51;;;;;;;1.73;1.30;;;19.50;99.90;;;;;;2483034;23;20338;-75
2023/08/21 02:13:52;;;;;;;5.20;1.48;;;19.40;99.90;;;;;;2483368;23;20007;-75
2023/08/21 02:14:52;;;;;;;3.83;1.73;;;19.40;99.90;;;;;;2496058;23;20041;-75
2023/08/21 02:15:53;;;;;;;6.78;1.33;;;19.40;99.90;;;;;;2494307;23;20603;-75
2023/08/21 02:16:54;;;;;;;4.07;1.48;;;19.40;99.90;;;;;;2495369;23;20018;-75
2023/08/21 02:17:54;;;;;;;4.68;1.48;;;19.40;99.90;;;;;;2496345;23;20031;-75
2023/08/21 02:18:55;;;;;;;2.10;1.42;;;19.40;99.90;;;;;;2495985;23;20003;-75
2023/08/21 02:19:55;;;;;;;2.10;1.23;;;19.40;99.90;;;;;;2494986;23;20376;-75
2023/08/21 02:20:56;;;;;;;5.50;1.70;;;19.40;99.90;;;;;;2495661;23;20369;-75
2023/08/21 02:21:57;;;;;;;2.42;1.30;;;19.40;99.90;;;;;;2496405;23;20336;-75
2023/08/21 02:22:57;;;;;;;3.50;1.77;;;19.40;99.90;;;;;;2482301;23;20373;-75
2023/08/21 02:23:58;;;;;;;4.35;1.80;;;19.40;99.90;;;;;;2483923;23;20086;-75
2023/08/21 02:24:59;;;;;;;5.18;1.38;;;19.40;99.90;;;;;;2496255;23;20485;-75
2023/08/21 02:25:59;;;;;;;1.98;1.42;;;19.40;99.90;;;;;;2496910;23;20386;-75
2023/08/21 02:27:00;;;;;;;4.75;1.60;;;19.40;99.90;;;;;;2495469;23;20035;-75
2023/08/21 02:28:01;;;;;;;5.38;1.63;;;19.40;99.90;;;;;;2496144;23;19999;-74
2023/08/21 02:29:03;;;;;;;2.20;1.45;;;19.40;99.90;;;;;;2483743;23;20082;-75
2023/08/21 02:30:04;;;;;;;3.75;1.50;;;19.40;99.90;;;;;;2483552;23;20015;-75
2023/08/21 02:31:08;;;;;;;2.50;1.52;;;19.30;99.90;;;;;;2495331;23;20941;-75
2023/08/21 02:32:09;;;;;;;3.15;1.42;;;19.30;99.90;;;;;;2494548;23;20047;-75
2023/08/21 02:33:09;;;;;;;4.03;1.60;;;19.30;99.90;;;;;;2495486;23;20027;-75
2023/08/21 02:34:10;;;;;;;5.30;1.63;;;19.30;99.90;;;;;;2495625;23;20010;-75
2023/08/21 02:35:10;;;;;;;3.42;1.42;;;19.30;99.90;;;;;;2495906;23;20705;-75
2023/08/21 02:36:11;;;;;;;3.63;1.67;;;19.30;99.90;;;;;;2496159;23;19999;-75
2023/08/21 02:37:11;;;;;;;6.05;1.60;;;19.30;99.90;;;;;;2495738;23;20532;-75
2023/08/21 02:38:12;;;;;;;2.30;1.20;;;19.30;99.90;;;;;;2496056;23;20000;-75
2023/08/21 02:39:12;;;;;;;2.15;1.25;;;19.30;99.90;;;;;;2496004;23;20074;-75
2023/08/21 02:40:13;;;;;;;1.95;1.38;;;19.30;99.90;;;;;;2496153;23;20013;-75
2023/08/21 02:41:14;;;;;;;1.90;1.10;;;19.20;99.90;;;;;;2495416;23;20007;-75
2023/08/21 02:42:14;;;;;;;3.65;1.20;;;19.20;99.90;;;;;;2483218;23;20012;-75
2023/08/21 02:43:16;;;;;;;3.03;1.40;;;19.20;99.90;;;;;;2483192;23;20015;-75
2023/08/21 02:44:16;;;;;;;7.45;1.77;;;19.30;99.90;;;;;;2484181;23;20004;-75
2023/08/21 02:45:18;;;;;;;5.63;1.50;;;19.30;99.90;;;;;;2495934;23;19999;-75
2023/08/21 02:46:19;;;;;;;4.15;1.60;;;19.20;99.90;;;;;;2495400;23;20007;-75
2023/08/21 02:47:20;;;;;;;7.80;1.80;;;19.20;99.90;;;;;;2494161;23;20034;-75
2023/08/21 02:48:20;;;;;;;3.72;1.30;;;19.20;99.90;;;;;;2496246;23;20010;-75
2023/08/21 02:49:21;;;;;;;3.13;1.30;;;19.20;99.90;;;;;;2495970;23;20421;-75
2023/08/21 02:50:22;;;;;;;3.05;1.48;;;19.20;99.90;;;;;;2496166;23;20008;-74
2023/08/21 02:51:22;;;;;;;3.08;1.33;;;19.20;99.90;;;;;;2495032;23;20060;-75
2023/08/21 02:52:23;;;;;;;2.92;1.60;;;19.20;99.90;;;;;;2494411;23;20007;-75
2023/08/21 02:53:24;;;;;;;5.05;1.20;;;19.20;99.90;;;;;;2496286;23;20078;-75
2023/08/21 02:54:24;;;;;;;7.28;1.60;;;19.20;99.90;;;;;;2495947;23;20010;-75
2023/08/21 02:55:25;;;;;;;3.40;1.35;;;19.10;99.90;;;;;;2483783;23;20004;-75
2023/08/21 02:56:25;;;;;;;1.25;1.13;;;19.10;99.90;;;;;;2484089;23;20456;-75
2023/08/21 02:57:26;;;;;;;2.80;1.13;;;19.10;99.90;;;;;;2495109;23;20378;-75
2023/08/21 02:58:27;;;;;;;6.60;1.42;;;19.10;99.90;;;;;;2495643;23;20011;-74
2023/08/21 02:59:28;;;;;;;4.57;1.58;;;19.10;99.90;;;;;;2483318;23;20449;-75
2023/08/21 03:00:28;;;;;;;5.18;1.30;;;19.10;99.90;;;;;;2483648;23;20341;-74
2023/08/21 03:01:29;;;;;;;3.90;1.55;;;19.10;99.90;;;;;;2496044;23;20086;-74
2023/08/21 03:02:30;;;;;;;2.15;1.10;;;19.10;99.90;;;;;;2495312;23;20720;-74
2023/08/21 03:03:32;;;;;;;5.35;1.35;;;19.00;99.90;;;;;;2483405;23;20023;-74
2023/08/21 03:04:32;;;;;;;3.75;1.88;;;19.00;99.90;;;;;;2483313;23;20443;-74
2023/08/21 03:05:33;;;;;;;6.40;1.70;;;19.10;99.90;;;;;;2495771;23;20421;-74
2023/08/21 03:06:34;;;;;;;6.00;1.70;;;19.10;99.90;;;;;;2495654;23;20022;-74
2023/08/21 03:07:34;;;;;;;3.15;1.55;;;19.10;99.90;;;;;;2495968;23;20006;-74
2023/08/21 03:08:35;;;;;;;2.58;1.25;;;19.10;99.90;;;;;;2496083;23;20007;-75
2023/08/21 03:09:37;;;;;;;3.47;1.77;;;19.00;99.90;;;;;;2496174;23;20480;-74
2023/08/21 03:10:37;;;;;;;5.05;1.60;;;19.00;99.90;;;;;;2495825;23;20003;-74
2023/08/21 03:11:38;;;;;;;2.03;1.45;;;19.10;99.90;;;;;;2495789;23;20459;-74
2023/08/21 03:12:38;;;;;;;3.25;1.40;;;19.00;99.90;;;;;;2495058;23;20012;-74
2023/08/21 03:13:39;;;;;;;7.13;1.77;;;19.10;99.90;;;;;;2495932;23;20436;-75
2023/08/21 03:14:40;;;;;;;5.00;1.60;;;19.00;99.90;;;;;;2496187;23;20003;-74
2023/08/21 03:15:40;;;;;;;3.50;1.48;;;19.00;99.90;;;;;;2495395;23;20090;-74
2023/08/21 03:16:41;;;;;;;3.75;1.38;;;19.00;99.90;;;;;;2482817;23;20468;-74
2023/08/21 03:17:41;;;;;;;2.63;1.13;;;19.10;99.90;;;;;;2483495;23;20491;-74
2023/08/21 03:19:02;;;;;;;2.83;1.20;;;19.00;99.90;;;;;;2483540;23;20007;-74
2023/08/21 03:20:04;;;;;;;3.75;1.50;;;19.00;99.90;;;;;;2494884;23;20007;-74
2023/08/21 03:21:05;;;;;;;6.70;1.63;;;19.00;99.90;;;;;;2495957;23;20047;-74
2023/08/21 03:22:06;;;;;;;2.95;1.20;;;19.00;99.90;;;;;;2495134;23;20007;-75
2023/08/21 03:23:06;;;;;;;5.07;1.27;;;19.00;99.90;;;;;;2495475;23;20013;-75
2023/08/21 03:24:07;;;;;;;3.92;1.05;;;19.00;99.90;;;;;;2496283;23;20014;-74
2023/08/21 03:25:08;;;;;;;3.00;1.23;;;19.00;99.90;;;;;;2496334;23;20027;-74
2023/08/21 03:26:08;;;;;;;3.75;1.40;;;19.00;99.90;;;;;;2496010;23;20190;-74
2023/08/21 03:27:09;;;;;;;2.33;1.33;;;19.00;99.90;;;;;;2496646;23;20019;-74
2023/08/21 03:28:09;;;;;;;2.13;1.30;;;19.00;99.90;;;;;;2495941;23;20004;-74
2023/08/21 03:29:10;;;;;;;3.45;1.50;;;19.00;99.90;;;;;;2496367;23;20051;-74
2023/08/21 03:30:13;;;;;;;2.92;1.17;;;19.00;99.90;;;;;;2495757;23;19999;-74
2023/08/21 03:31:17;;;;;;;4.47;1.17;;;19.00;99.90;;;;;;2495931;23;20038;-75
2023/08/21 03:32:18;;;;;;;4.38;1.73;;;19.00;99.90;;;;;;2495349;23;20043;-74
2023/08/21 03:33:19;;;;;;;3.35;1.40;;;18.90;99.90;;;;;;2495733;23;20424;-74
2023/08/21 03:34:19;;;;;;;6.05;1.35;;;18.90;99.90;;;;;;2494848;23;20341;-75
2023/08/21 03:35:20;;;;;;;3.40;1.42;;;19.00;99.90;;;;;;2495976;23;20010;-74
2023/08/21 03:36:20;;;;;;;4.50;1.35;;;18.90;99.90;;;;;;2495634;23;20026;-74
2023/08/21 03:37:21;;;;;;;5.22;1.35;;;19.00;99.90;;;;;;2495967;23;20028;-75
2023/08/21 03:38:22;;;;;;;5.03;1.38;;;19.00;99.90;;;;;;2496414;23;20010;-74
2023/08/21 03:39:22;;;;;;;2.38;1.17;;;19.00;99.90;;;;;;2483369;23;20004;-75
2023/08/21 03:40:23;;;;;;;4.63;1.38;;;19.00;99.90;;;;;;2483017;23;20004;-74
2023/08/21 03:41:23;;;;;;;3.35;1.40;;;19.00;99.90;;;;;;2496157;23;20007;-74
2023/08/21 03:42:24;;;;;;;2.17;1.05;;;19.00;99.90;;;;;;2495166;23;20186;-75
2023/08/21 03:43:24;;;;;;;3.45;1.42;;;18.90;99.90;;;;;;2496218;23;20007;-75
2023/08/21 03:44:25;;;;;;;2.72;1.38;;;18.90;99.90;;;;;;2495702;23;20038;-75
2023/08/21 03:45:25;;;;;;;4.57;1.42;;;18.90;99.90;;;;;;2495798;23;20075;-75
2023/08/21 03:46:26;;;;;;;2.90;1.40;;;18.90;99.90;;;;;;2483003;23;20004;-75
2023/08/21 03:47:27;;;;;;;2.00;1.25;;;18.90;99.90;;;;;;2483378;23;20011;-75
2023/08/21 03:48:27;;;;;;;1.88;1.23;;;18.90;99.90;;;;;;2495938;23;20007;-75
2023/08/21 03:49:28;;;;;;;3.08;1.52;;;18.90;99.90;;;;;;2496065;23;20078;-75
2023/08/21 03:50:28;;;;;;;1.95;1.35;;;18.90;99.90;;;;;;2495224;23;20003;-75
2023/08/21 03:51:29;;;;;;;3.05;1.60;;;18.90;99.90;;;;;;2483905;23;20605;-75
2023/08/21 03:52:29;;;;;;;5.18;1.48;;;18.90;99.90;;;;;;2482300;23;20003;-74
2023/08/21 03:53:30;;;;;;;2.83;1.48;;;18.90;99.90;;;;;;2496213;23;20004;-75
2023/08/21 03:54:30;;;;;;;5.15;1.55;;;18.90;99.90;;;;;;2495803;23;20106;-75
2023/08/21 03:55:31;;;;;;;2.58;1.35;;;18.90;99.90;;;;;;2496127;23;20015;-75
2023/08/21 03:56:31;;;;;;;3.78;1.50;;;18.80;99.90;;;;;;2496070;23;20015;-75
2023/08/21 03:57:32;;;;;;;4.43;1.63;;;18.90;99.90;;;;;;2495944;23;20057;-75
2023/08/21 03:58:32;;;;;;;2.25;1.13;;;18.90;99.90;;;;;;2496266;23;20099;-74
2023/08/21 03:59:33;;;;;;;3.60;1.45;;;18.80;99.90;;;;;;2496018;23;20042;-75
2023/08/21 04:00:34;;;;;;;9.88;1.75;;;18.80;99.90;;;;;;2495174;23;20015;-74
2023/08/21 04:01:34;;;;;;;3.25;1.50;;;18.80;99.90;;;;;;2495310;23;20332;-75
2023/08/21 04:02:35;;;;;;;4.88;1.92;;;18.80;99.90;;;;;;2494374;23;20003;-75
2023/08/21 04:03:35;;;;;;;3.97;1.85;;;18.80;99.90;;;;;;2497038;23;20102;-75
2023/08/21 04:04:36;;;;;;;6.97;1.55;;;18.80;99.90;;;;;;2495885;23;20008;-75
2023/08/21 04:05:37;;;;;;;2.38;1.48;;;18.80;99.90;;;;;;2496205;23;20007;-75
2023/08/21 04:06:37;;;;;;;2.28;1.52;;;18.80;99.90;;;;;;2484050;23;20011;-75
2023/08/21 04:07:39;;;;;;;6.00;1.35;;;18.80;99.90;;;;;;2482881;23;20055;-75
2023/08/21 04:08:39;;;;;;;2.85;1.70;;;18.80;99.90;;;;;;2496190;23;20011;-75
2023/08/21 04:09:40;;;;;;;4.30;1.42;;;18.70;99.90;;;;;;2495590;23;20130;-75
2023/08/21 04:10:41;;;;;;;5.40;1.67;;;18.80;99.90;;;;;;2496708;23;20486;-75
2023/08/21 04:11:42;;;;;;;3.58;1.63;;;18.80;99.90;;;;;;2497038;23;20007;-75
2023/08/21 04:12:42;;;;;;;5.82;2.13;;;18.70;99.90;;;;;;2495488;23;20007;-75
2023/08/21 04:13:43;;;;;;;6.55;2.15;;;18.80;99.90;;;;;;2496216;23;20003;-75
2023/08/21 04:14:44;;;;;;;4.05;1.77;;;18.70;99.90;;;;;;2496759;23;20003;-75
2023/08/21 04:15:45;;;;;;;6.55;1.67;;;18.70;99.90;;;;;;2494941;23;20007;-75
2023/08/21 04:16:46;;;;;;;7.50;2.08;;;18.70;99.90;;;;;;2496141;23;20034;-74
2023/08/21 04:17:46;;;;;;;6.57;1.90;;;18.70;99.90;;;;;;2496937;23;20019;-75
2023/08/21 04:18:47;;;;;;;4.90;2.10;;;18.70;99.90;;;;;;2483888;23;20018;-75
2023/08/21 04:19:47;;;;;;;3.72;1.50;;;18.70;99.90;;;;;;2484122;23;20586;-75
2023/08/21 04:20:48;;;;;;;3.63;1.50;;;18.70;99.90;;;;;;2497392;23;20031;-75
2023/08/21 04:21:49;;;;;;;3.05;1.70;;;18.70;99.90;;;;;;2496163;23;20018;-75
2023/08/21 04:22:50;;;;;;;5.38;1.80;;;18.70;99.90;;;;;;2495355;23;20459;-75
2023/08/21 04:23:50;;;;;;;7.10;1.95;;;18.70;99.90;;;;;;2496864;23;20007;-75
2023/08/21 04:24:51;;;;;;;3.55;1.52;;;18.70;99.90;;;;;;2496421;23;20089;-74
2023/08/21 04:25:51;;;;;;;2.30;1.40;;;18.70;99.90;;;;;;2496546;23;20090;-75
2023/08/21 04:26:52;;;;;;;3.88;1.70;;;18.70;99.90;;;;;;2496777;23;20481;-75
2023/08/21 04:27:52;;;;;;;3.65;1.17;;;18.70;99.90;;;;;;2483576;23;20012;-75
2023/08/21 04:28:53;;;;;;;4.63;1.80;;;18.70;99.90;;;;;;2484119;23;20065;-75
2023/08/21 04:29:53;;;;;;;3.42;1.73;;;18.70;99.90;;;;;;2496411;23;20389;-74
2023/08/21 04:30:54;;;;;;;6.35;2.03;;;18.70;99.90;;;;;;2496060;23;20449;-75
2023/08/21 04:31:55;;;;;;;4.65;1.88;;;18.70;99.90;;;;;;2497007;23;20005;-75
2023/08/21 04:32:55;;;;;;;4.70;1.77;;;18.70;99.90;;;;;;2482880;23;20061;-75
2023/08/21 04:33:56;;;;;;;2.50;1.63;;;18.70;99.90;;;;;;2483277;23;20000;-75
2023/08/21 04:34:56;;;;;;;2.47;1.30;;;18.70;99.90;;;;;;2496191;23;20000;-75
2023/08/21 04:35:57;;;;;;;5.45;1.85;;;18.70;99.90;;;;;;2496819;23;20036;-75
2023/08/21 04:36:58;;;;;;;4.45;1.98;;;18.70;99.90;;;;;;2497020;23;20031;-74
2023/08/21 04:37:58;;;;;;;6.07;1.90;;;18.70;99.90;;;;;;2496356;23;20003;-75
2023/08/21 04:38:59;;;;;;;2.00;1.42;;;18.70;99.90;;;;;;2495571;23;20030;-75
2023/08/21 04:39:59;;;;;;;2.95;1.73;;;18.70;99.90;;;;;;2496255;23;20006;-75
2023/08/21 04:41:07;;;;;;;3.17;1.40;;;18.70;99.90;;;;;;2483857;23;20078;-75
2023/08/21 04:42:08;;;;;;;4.90;1.33;;;18.70;99.90;;;;;;2495911;23;20011;-75
2023/08/21 04:43:08;;;;;;;4.60;1.60;;;18.70;99.90;;;;;;2484156;23;20011;-75
2023/08/21 04:44:09;;;;;;;3.60;1.38;;;18.70;99.90;;;;;;2483891;23;20004;-74
2023/08/21 04:45:10;;;;;;;5.22;1.63;;;18.70;99.90;;;;;;2496254;23;20078;-75
2023/08/21 04:46:10;;;;;;;4.65;1.83;;;18.70;99.90;;;;;;2496655;23;20447;-75
2023/08/21 04:47:27;;;;;;;3.38;1.40;;;18.70;99.90;;;;;;2496366;23;20011;-74
2023/08/21 04:48:27;;;;;;;3.05;1.40;;;18.70;99.90;;;;;;2496804;23;20011;-75
2023/08/21 04:49:28;;;;;;;3.15;1.50;;;18.70;99.90;;;;;;2496189;23;20027;-75
2023/08/21 04:50:28;;;;;;;2.40;1.27;;;18.70;99.90;;;;;;2496172;23;20027;-75
2023/08/21 04:51:29;;;;;;;9.40;2.25;;;18.70;99.90;;;;;;2496767;23;20109;-74
2023/08/21 04:52:30;;;;;;;6.03;2.00;;;18.70;99.90;;;;;;2495470;23;20003;-74
2023/08/21 04:53:30;;;;;;;3.72;1.20;;;18.70;99.90;;;;;;2496161;23;20101;-74
2023/08/21 04:54:31;;;;;;;3.72;1.95;;;18.80;99.90;;;;;;2496830;23;20003;-74
2023/08/21 04:55:32;;;;;;;5.32;1.20;;;18.80;99.90;;;;;;2496763;23;20003;-74
2023/08/21 04:56:32;;;;;;;5.65;2.03;;;18.70;99.90;;;;;;2495898;23;20011;-74
2023/08/21 04:57:33;;;;;;;4.45;1.50;;;18.80;99.90;;;;;;2496552;23;20484;-74
2023/08/21 04:58:33;;;;;;;4.03;1.80;;;18.80;99.90;;;;;;2496516;23;20011;-74
2023/08/21 04:59:35;;;;;;;2.40;1.60;;;18.80;99.90;;;;;;2496808;23;20011;-74
2023/08/21 05:00:36;;;;;;;3.38;1.50;;;18.80;99.90;;;;;;2496460;23;20007;-75
2023/08/21 05:01:37;;;;;;;3.70;1.50;;;18.80;99.90;;;;;;2495253;23;20022;-74
2023/08/21 05:02:37;;;;;;;3.65;1.42;;;18.80;99.90;;;;;;2495321;23;20376;-74
2023/08/21 05:03:38;;;;;;;3.58;1.48;;;18.80;99.90;;;;;;2496251;23;20067;-74
2023/08/21 05:04:38;;;;;;;8.63;1.55;;;18.80;99.90;;;;;;2495420;23;20035;-74
2023/08/21 05:05:39;;;;;;;3.28;1.27;;;18.80;99.90;;;;;;2495506;23;20466;-74
2023/08/21 05:06:40;;;;;;;5.72;1.75;;;18.80;99.90;;;;;;2495310;23;20015;-75
2023/08/21 05:07:40;;;;;;;4.40;1.90;;;18.80;99.90;;;;;;2484205;23;20373;-74
2023/08/21 05:08:41;;;;;;;4.03;1.75;;;18.80;99.90;;;;;;2495748;23;20007;-74
2023/08/21 05:09:41;;;;;;;7.28;1.88;;;18.90;99.90;;;;;;2495372;23;20082;-74
2023/08/21 05:10:42;;;;;;;5.55;1.73;;;18.90;99.90;;;;;;2496831;23;20495;-74
2023/08/21 05:11:42;;;;;;;3.63;1.55;;;18.90;99.90;;;;;;2496386;23;20086;-74
2023/08/21 05:12:43;;;;;;;3.35;1.50;;;18.90;99.90;;;;;;2496142;23;20511;-74
2023/08/21 05:13:43;;;;;;;7.55;1.70;;;19.00;99.90;;;;;;2483409;23;20012;-74
2023/08/21 05:14:44;;;;;;;2.08;1.65;;;19.00;99.90;;;;;;2483714;23;20179;-74
2023/08/21 05:15:54;;;;;;;2.92;1.75;;;19.00;99.90;;;;;;2496451;23;20054;-74
2023/08/21 05:16:55;;;;;;;6.63;1.90;;;19.00;99.90;;;;;;2496107;23;20017;-74
2023/08/21 05:17:55;;;;;;;4.88;2.00;;;19.00;99.90;;;;;;2496188;23;20009;-75
2023/08/21 05:18:56;;;;;;;5.25;1.92;;;19.00;99.90;;;;;;2496460;23;20035;-74